Time;durP1;ratioP1;P1;durP2;ratioP2;P2;SDS_P1;SDS_P2;PMS_P1;PMS_P2;Temp;Humidity;BMP_temperature;BMP_pressure;BME280_temperature;BME280_humidity;BME280_pressure;Samples;Min_cycle;Max_cycle;Signal;HPM_P1;HPM_P2
2022/06/12 00:01:27;;;;;;;14.68;5.40;;;12.00;99.90;;;;;;4955820;28;20059;-84
2022/06/12 00:04:02;;;;;;;17.55;5.70;;;12.00;99.90;;;;;;4956249;28;20061;-83
2022/06/12 00:06:27;;;;;;;16.48;4.95;;;12.80;99.90;;;;;;4973762;28;20042;-84
2022/06/12 00:08:55;;;;;;;19.77;5.30;;;11.90;99.90;;;;;;4955706;28;20133;-83
2022/06/12 00:11:25;;;;;;;16.38;5.28;;;12.50;99.90;;;;;;4973855;28;20138;-84
2022/06/12 00:14:03;;;;;;;15.93;5.28;;;11.90;99.90;;;;;;4972498;28;20038;-84
2022/06/12 00:16:32;;;;;;;18.15;5.20;;;11.90;99.90;;;;;;4973924;28;20042;-84
2022/06/12 00:18:58;;;;;;;16.98;5.60;;;11.80;99.90;;;;;;4956228;28;20055;-84
2022/06/12 00:21:25;;;;;;;13.70;5.20;;;12.10;99.90;;;;;;4973102;28;20203;-84
2022/06/12 00:23:57;;;;;;;16.05;5.43;;;11.80;99.90;;;;;;4973816;28;20039;-84
2022/06/12 00:26:29;;;;;;;17.97;5.87;;;11.80;99.90;;;;;;4974091;28;20042;-83
2022/06/12 00:28:59;;;;;;;18.08;5.15;;;11.80;99.90;;;;;;4972783;28;20053;-83
2022/06/12 00:31:26;;;;;;;17.55;5.32;;;11.70;99.90;;;;;;4973967;28;20117;-84
2022/06/12 00:33:51;;;;;;;15.98;5.70;;;11.70;99.90;;;;;;4955987;28;20129;-84
2022/06/12 00:36:17;;;;;;;20.80;5.82;;;11.70;99.90;;;;;;4955744;28;20578;-84
2022/06/12 00:38:43;;;;;;;15.45;5.88;;;12.50;99.90;;;;;;4956167;28;20540;-84
2022/06/12 00:41:08;;;;;;;13.65;5.53;;;11.70;99.90;;;;;;4973893;28;20074;-84
2022/06/12 00:43:34;;;;;;;16.50;5.75;;;11.60;99.90;;;;;;4955629;28;20055;-84
2022/06/12 00:46:01;;;;;;;16.10;5.57;;;11.60;99.90;;;;;;4956190;28;20078;-84
2022/06/12 00:48:34;;;;;;;18.48;6.18;;;11.60;99.90;;;;;;4973873;28;20399;-84
2022/06/12 00:51:04;;;;;;;16.07;6.23;;;11.60;99.90;;;;;;4955567;28;20051;-84
2022/06/12 00:53:54;;;;;;;16.92;6.28;;;11.60;99.90;;;;;;4956389;28;20043;-84
2022/06/12 00:56:30;;;;;;;17.02;5.85;;;11.70;99.90;;;;;;4955294;28;20081;-84
2022/06/12 00:59:02;;;;;;;14.60;5.95;;;11.70;99.90;;;;;;4973401;28;20046;-84
2022/06/12 01:01:32;;;;;;;14.63;5.57;;;11.80;99.90;;;;;;4975685;28;20047;-84
2022/06/12 01:06:46;;;;;;;15.48;5.55;;;11.90;99.90;;;;;;4959539;28;20051;-84
2022/06/12 01:09:25;;;;;;;15.65;5.90;;;12.00;99.90;;;;;;4959858;28;20054;-84
2022/06/12 01:11:53;;;;;;;15.45;5.38;;;11.90;99.90;;;;;;4959038;28;20164;-83
2022/06/12 01:14:23;;;;;;;16.27;5.30;;;11.90;99.90;;;;;;4959594;28;20042;-84
2022/06/12 01:16:49;;;;;;;17.42;5.05;;;11.80;99.90;;;;;;4976356;28;20483;-84
2022/06/12 01:19:24;;;;;;;16.70;5.28;;;11.80;99.90;;;;;;4976279;28;20082;-84
2022/06/12 01:22:19;;;;;;;14.95;5.40;;;11.80;99.90;;;;;;4976775;28;20514;-84
2022/06/12 01:24:48;;;;;;;16.27;5.25;;;11.70;99.90;;;;;;4932833;28;20061;-84
2022/06/12 01:27:42;;;;;;;13.18;4.80;;;11.70;99.90;;;;;;4959607;28;20090;-84
2022/06/12 01:30:23;;;;;;;15.80;4.55;;;11.60;99.90;;;;;;4959388;28;20058;-84
2022/06/12 01:33:21;;;;;;;14.88;4.93;;;11.70;99.90;;;;;;4958195;28;20051;-84
2022/06/12 01:36:12;;;;;;;14.32;4.82;;;11.60;99.90;;;;;;4959076;28;20046;-84
2022/06/12 01:38:50;;;;;;;16.08;5.10;;;11.70;99.90;;;;;;4976139;28;20102;-84
2022/06/12 01:41:32;;;;;;;16.50;5.10;;;11.60;99.90;;;;;;4959023;28;20129;-84
2022/06/12 01:44:23;;;;;;;12.80;4.70;;;11.60;99.90;;;;;;4959044;28;20122;-84
2022/06/12 01:47:19;;;;;;;15.35;5.05;;;11.60;99.90;;;;;;4975208;28;20049;-84
2022/06/12 01:49:54;;;;;;;14.70;4.78;;;11.50;99.90;;;;;;4958856;28;20483;-84
2022/06/12 01:52:39;;;;;;;13.80;4.95;;;11.40;99.90;;;;;;4958066;28;20399;-84
2022/06/12 01:55:13;;;;;;;17.92;5.10;;;11.40;99.90;;;;;;4958871;28;20051;-84
2022/06/12 01:57:51;;;;;;;13.70;4.93;;;11.30;99.90;;;;;;4958463;28;20057;-84
2022/06/12 02:00:21;;;;;;;15.68;4.78;;;11.20;99.90;;;;;;4957758;28;20503;-84
2022/06/12 02:02:51;;;;;;;13.65;4.50;;;11.10;99.90;;;;;;4974981;28;20058;-84
2022/06/12 02:05:22;;;;;;;14.27;4.57;;;11.10;99.90;;;;;;4958465;28;20050;-83
2022/06/12 02:08:12;;;;;;;15.40;4.68;;;11.10;99.90;;;;;;4957743;28;20046;-84
2022/06/12 02:10:56;;;;;;;14.55;4.40;;;11.00;99.90;;;;;;4976050;28;20435;-84
2022/06/12 02:13:35;;;;;;;12.35;4.05;;;11.10;99.90;;;;;;4958065;28;20053;-84
2022/06/12 02:16:10;;;;;;;13.73;4.03;;;11.00;99.90;;;;;;4975783;28;20043;-84
2022/06/12 02:18:53;;;;;;;13.10;4.38;;;11.00;99.90;;;;;;4975999;28;20047;-84
2022/06/12 02:21:30;;;;;;;12.75;4.45;;;11.00;99.90;;;;;;4975316;28;20043;-84
2022/06/12 02:23:59;;;;;;;14.63;4.28;;;10.90;99.90;;;;;;4957989;28;20054;-84
2022/06/12 02:27:00;;;;;;;14.02;5.15;;;10.90;99.90;;;;;;4958825;28;20185;-83
2022/06/12 02:29:44;;;;;;;12.38;4.72;;;10.90;99.90;;;;;;4975162;28;20035;-84
2022/06/12 02:32:19;;;;;;;14.63;4.70;;;10.90;99.90;;;;;;4958586;28;20487;-84
2022/06/12 02:34:52;;;;;;;13.27;4.47;;;10.80;99.90;;;;;;4957349;28;20204;-84
2022/06/12 02:37:25;;;;;;;13.93;4.72;;;10.80;99.90;;;;;;4958195;28;20152;-84
2022/06/12 02:40:02;;;;;;;13.07;4.72;;;10.80;99.90;;;;;;4957884;28;20043;-84
2022/06/12 02:42:37;;;;;;;14.40;5.22;;;10.80;99.90;;;;;;4975088;28;20069;-84
2022/06/12 02:45:11;;;;;;;9.40;4.28;;;10.70;99.90;;;;;;4975620;28;20105;-84
2022/06/12 02:47:37;;;;;;;;;;;10.80;99.90;;;;;;4976085;28;20375;-84
2022/06/12 02:50:04;;;;;;;13.43;4.75;;;10.70;99.90;;;;;;4957321;28;20362;-84
2022/06/12 02:52:33;;;;;;;15.75;5.43;;;10.70;99.90;;;;;;4958185;28;20054;-84
2022/06/12 02:55:11;;;;;;;14.20;4.63;;;11.20;99.90;;;;;;4957600;28;20085;-84
2022/06/12 02:58:08;;;;;;;16.48;5.10;;;10.70;99.90;;;;;;4974726;28;20090;-84
2022/06/12 03:00:58;;;;;;;15.75;4.93;;;10.70;99.90;;;;;;4953413;28;20051;-84
2022/06/12 03:03:35;;;;;;;13.07;4.43;;;10.70;99.90;;;;;;4973964;28;20512;-84
2022/06/12 03:06:01;;;;;;;15.98;5.50;;;10.70;99.90;;;;;;4957372;28;20101;-84
2022/06/12 03:08:35;;;;;;;15.75;4.85;;;10.70;99.90;;;;;;4974874;28;20050;-84
2022/06/12 03:11:13;;;;;;;;;;;10.70;99.90;;;;;;4973026;28;20161;-84
2022/06/12 03:13:39;;;;;;;14.57;4.88;;;10.70;99.90;;;;;;4957285;28;19922;-84
2022/06/12 03:16:16;;;;;;;14.15;4.88;;;11.10;99.90;;;;;;5023806;23;20110;-84
2022/06/12 03:18:48;;;;;;;13.15;4.72;;;10.60;99.90;;;;;;4933754;29;20492;-84
2022/06/12 03:21:35;;;;;;;16.67;4.93;;;10.60;99.90;;;;;;4919528;29;20472;-84
2022/06/12 03:24:06;;;;;;;14.38;4.80;;;10.60;99.90;;;;;;4917355;29;20051;-84
2022/06/12 03:26:56;;;;;;;16.13;5.00;;;10.60;99.90;;;;;;4919360;29;20106;-84
2022/06/12 03:29:46;;;;;;;13.15;4.57;;;10.60;99.90;;;;;;4919265;29;20138;-84
2022/06/12 03:32:25;;;;;;;13.15;5.10;;;10.60;99.90;;;;;;4935760;29;20047;-83
2022/06/12 03:35:26;;;;;;;13.55;5.13;;;10.60;99.90;;;;;;4935682;29;20054;-84
2022/06/12 03:38:18;;;;;;;13.05;4.38;;;10.60;99.90;;;;;;4883733;29;20067;-84
2022/06/12 03:41:14;;;;;;;15.82;5.18;;;10.60;99.90;;;;;;4935641;29;20048;-84
2022/06/12 03:44:18;;;;;;;13.85;4.38;;;10.60;99.90;;;;;;4935491;29;20047;-84
2022/06/12 03:46:50;;;;;;;13.10;4.53;;;10.70;99.90;;;;;;4928627;29;20570;-84
2022/06/12 03:49:44;;;;;;;15.38;4.93;;;10.60;99.90;;;;;;4918775;29;20126;-84
2022/06/12 03:52:28;;;;;;;11.30;4.38;;;10.70;99.90;;;;;;4917954;29;20047;-84
2022/06/12 03:57:50;;;;;;;12.80;4.30;;;10.70;99.90;;;;;;4935272;29;20055;-84
2022/06/12 03:58:19;;;;;;;12.10;4.53;;;10.70;99.90;;;;;;4935491;29;20051;-84
2022/06/12 04:00:47;;;;;;;10.98;3.70;;;10.80;99.90;;;;;;4931712;29;20044;-84
2022/06/12 04:03:34;;;;;;;12.15;3.65;;;10.80;99.90;;;;;;4916663;29;20080;-84
2022/06/12 04:06:07;;;;;;;12.77;3.88;;;10.90;99.90;;;;;;4898017;29;20500;-84
2022/06/12 04:08:37;;;;;;;17.45;4.03;;;10.90;99.90;;;;;;4916633;29;20111;-84
2022/06/12 04:11:06;;;;;;;12.30;3.80;;;11.00;99.90;;;;;;4898867;29;20052;-84
2022/06/12 04:13:33;;;;;;;11.07;3.90;;;11.10;99.90;;;;;;4914480;29;20196;-84
2022/06/12 04:16:03;;;;;;;12.52;3.70;;;11.10;99.90;;;;;;4916162;29;20048;-84
2022/06/12 04:18:31;;;;;;;12.32;3.78;;;11.20;99.90;;;;;;4948446;29;20048;-84
2022/06/12 04:21:02;;;;;;;12.13;3.70;;;11.70;99.90;;;;;;4949120;28;20043;-84
2022/06/12 04:23:36;;;;;;;15.27;3.92;;;11.40;99.90;;;;;;4935614;29;20075;-84
2022/06/12 04:26:11;;;;;;;;;;;11.50;99.90;;;;;;4934173;29;20051;-84
2022/06/12 04:28:42;;;;;;;12.55;3.80;;;11.50;99.90;;;;;;4933358;29;19919;-84
2022/06/12 04:31:18;;;;;;;10.80;3.85;;;11.60;99.90;;;;;;4949908;29;20054;-84
2022/06/12 04:34:02;;;;;;;14.95;4.30;;;11.70;99.90;;;;;;4933507;29;20536;-84
2022/06/12 04:36:28;;;;;;;;;;;11.80;99.90;;;;;;4938278;29;20146;-84
2022/06/12 04:38:53;;;;;;;15.35;4.18;;;11.90;99.90;;;;;;4937728;29;19974;-84
2022/06/12 04:41:23;;;;;;;13.85;3.90;;;12.00;99.90;;;;;;4938347;29;20114;-84
2022/06/12 04:43:49;;;;;;;13.15;4.25;;;12.10;99.90;;;;;;4937582;29;20369;-84
2022/06/12 04:46:15;;;;;;;15.52;4.03;;;13.10;99.90;;;;;;4954052;29;20062;-84
2022/06/12 04:48:45;;;;;;;14.35;4.30;;;12.20;99.90;;;;;;4938296;29;20048;-83
2022/06/12 04:51:12;;;;;;;11.45;4.00;;;12.30;99.90;;;;;;4953974;29;20081;-84
2022/06/12 04:53:40;;;;;;;13.30;3.83;;;12.40;99.90;;;;;;4937973;29;20087;-84
2022/06/12 04:56:08;;;;;;;13.85;4.20;;;12.50;99.90;;;;;;4936764;29;20058;-84
2022/06/12 04:58:35;;;;;;;11.35;3.92;;;12.60;99.90;;;;;;4938910;29;20043;-84
2022/06/12 05:01:00;;;;;;;18.20;4.75;;;12.70;99.90;;;;;;4937567;29;20047;-84
2022/06/12 05:03:26;;;;;;;15.95;5.63;;;12.90;99.90;;;;;;4938289;29;20098;-84
2022/06/12 05:05:52;;;;;;;13.55;4.47;;;12.90;99.90;;;;;;4953485;28;20052;-84
2022/06/12 05:08:18;;;;;;;20.58;5.57;;;13.60;99.90;;;;;;4938995;29;20079;-84
2022/06/12 05:10:46;;;;;;;18.17;5.38;;;13.20;99.90;;;;;;4977557;23;20377;-84
2022/06/12 05:13:12;;;;;;;19.05;6.38;;;13.30;99.90;;;;;;4957755;28;20051;-85
2022/06/12 05:15:38;;;;;;;24.48;7.30;;;13.40;99.90;;;;;;4957763;28;20086;-84
2022/06/12 05:18:07;;;;;;;23.75;7.03;;;13.50;99.90;;;;;;4939579;29;20110;-84
2022/06/12 05:20:35;;;;;;;24.85;7.07;;;13.60;99.90;;;;;;4940072;29;20051;-84
2022/06/12 05:23:02;;;;;;;23.80;7.25;;;13.70;99.90;;;;;;4939951;29;20054;-84
2022/06/12 05:25:28;;;;;;;23.88;7.32;;;13.80;99.90;;;;;;4940101;29;20401;-84
2022/06/12 05:27:54;;;;;;;30.85;8.23;;;13.90;99.90;;;;;;4939818;29;20043;-84
2022/06/12 05:30:24;;;;;;;25.98;7.93;;;13.90;99.90;;;;;;4939383;23;20421;-84
2022/06/12 05:32:52;;;;;;;24.40;7.30;;;14.00;99.90;;;;;;4934110;29;20488;-84
2022/06/12 05:35:19;;;;;;;24.88;7.93;;;14.00;99.90;;;;;;4918839;29;20052;-87
2022/06/12 05:37:45;;;;;;;25.92;7.20;;;14.10;99.90;;;;;;4916805;29;20044;-85
2022/06/12 05:40:18;;;;;;;22.20;6.35;;;14.40;99.90;;;;;;4920017;29;20036;-89
2022/06/12 05:57:42;;;;;;;17.15;4.15;;;14.60;99.90;;;;;;4937897;29;20055;-87
2022/06/12 06:33:13;;;;;;;14.60;4.00;;;15.70;99.90;;;;;;5610384;23;20112;-88
2022/06/12 08:22:45;;;;;;;23.80;5.60;;;19.60;99.90;;;;;;4913952;29;20070;-85
2022/06/12 08:29:14;;;;;;;20.98;6.75;;;19.30;99.90;;;;;;4915828;29;20149;-86
2022/06/12 08:58:03;;;;;;;19.00;5.28;;;20.50;99.90;;;;;;4954165;29;20152;-85
2022/06/12 09:01:59;;;;;;;16.77;5.03;;;20.40;99.90;;;;;;4938698;29;20042;-88
2022/06/12 10:59:16;;;;;;;8.90;2.63;;;21.40;99.90;;;;;;6338191;22;20033;-84
2022/06/12 12:09:08;;;;;;;8.02;2.00;;;22.50;95.90;;;;;;6337919;22;20022;-85
2022/06/12 12:12:02;;;;;;;7.68;1.98;;;22.80;96.30;;;;;;6309588;22;20388;-82
2022/06/12 12:14:47;;;;;;;7.53;2.35;;;22.80;94.30;;;;;;6338687;22;20089;-85
2022/06/12 12:29:33;;;;;;;8.25;2.28;;;23.20;92.80;;;;;;6334834;22;20026;-84
2022/06/12 12:32:55;;;;;;;8.23;2.20;;;23.20;92.00;;;;;;6338009;22;20143;-85
2022/06/12 12:41:11;;;;;;;7.88;2.30;;;22.90;92.50;;;;;;6308463;22;20454;-83
2022/06/12 12:43:50;;;;;;;7.93;2.13;;;22.70;92.10;;;;;;6310033;22;20022;-83
2022/06/12 12:46:16;;;;;;;8.13;2.00;;;22.60;92.60;;;;;;6338512;22;20026;-82
2022/06/12 12:48:45;;;;;;;6.82;2.10;;;22.40;92.80;;;;;;6337162;22;20015;-83
2022/06/12 12:51:24;;;;;;;8.32;2.00;;;22.60;92.60;;;;;;6310260;22;20018;-85
2022/06/12 12:53:52;;;;;;;7.72;2.33;;;22.60;92.30;;;;;;6336868;22;20026;-84
2022/06/12 12:56:28;;;;;;;6.93;1.90;;;22.70;92.10;;;;;;6310936;22;20042;-84
2022/06/12 12:59:07;;;;;;;8.27;2.15;;;22.50;91.20;;;;;;6310975;22;20014;-86
2022/06/12 13:01:43;;;;;;;9.63;2.30;;;22.50;91.60;;;;;;6308275;22;20010;-85
2022/06/12 13:04:23;;;;;;;7.43;2.13;;;22.70;92.20;;;;;;6309415;22;20098;-83
2022/06/12 13:07:13;;;;;;;7.68;2.10;;;23.10;91.10;;;;;;6309027;22;20019;-87
2022/06/12 13:21:03;;;;;;;7.78;1.98;;;23.30;90.50;;;;;;6274977;22;20010;-88
2022/06/12 13:23:57;;;;;;;10.35;2.38;;;23.30;90.50;;;;;;6273842;22;20348;-89
2022/06/12 13:26:25;;;;;;;8.85;2.00;;;23.50;90.10;;;;;;6276077;22;20335;-87
2022/06/12 13:28:56;;;;;;;9.68;2.40;;;23.50;90.40;;;;;;6272528;22;20012;-87
2022/06/12 13:31:28;;;;;;;9.23;2.25;;;23.50;90.20;;;;;;6273485;22;20348;-87
2022/06/12 13:33:57;;;;;;;8.27;2.00;;;23.50;89.70;;;;;;6274963;22;20020;-86
2022/06/12 13:36:39;;;;;;;7.30;1.75;;;23.50;89.90;;;;;;6273103;22;20489;-87
2022/06/12 13:39:30;;;;;;;9.52;2.15;;;23.60;89.10;;;;;;6236483;22;20435;-87
2022/06/12 13:42:12;;;;;;;7.22;1.80;;;23.40;88.40;;;;;;6248064;22;20573;-88
2022/06/12 13:44:38;;;;;;;10.10;2.10;;;23.30;88.40;;;;;;6274418;22;20019;-87
2022/06/12 13:47:19;;;;;;;8.10;2.20;;;23.20;89.50;;;;;;6261644;22;20341;-87
2022/06/12 13:49:56;;;;;;;7.93;1.90;;;23.30;89.10;;;;;;6272509;22;20032;-88
2022/06/12 13:52:33;;;;;;;7.43;1.85;;;23.40;88.30;;;;;;6275450;22;20042;-90
2022/06/12 13:54:59;;;;;;;5.68;1.95;;;23.40;87.10;;;;;;6275082;22;20016;-87
2022/06/12 13:57:33;;;;;;;9.35;2.30;;;23.30;86.00;;;;;;6274276;22;20015;-87
2022/06/12 14:00:00;;;;;;;7.18;2.08;;;23.00;86.10;;;;;;6274597;22;20012;-87
2022/06/12 14:02:38;;;;;;;6.47;1.92;;;23.20;87.60;;;;;;6277424;22;20360;-86
2022/06/12 14:05:23;;;;;;;8.20;2.00;;;23.40;87.60;;;;;;6274410;22;20012;-87
2022/06/12 14:07:50;;;;;;;7.57;2.00;;;23.60;86.20;;;;;;6277274;22;20020;-87
2022/06/12 14:10:29;;;;;;;8.57;2.20;;;23.70;85.70;;;;;;6275057;22;20008;-92
2022/06/12 14:12:58;;;;;;;11.07;2.22;;;23.40;85.50;;;;;;6306152;22;20455;-88
2022/06/12 14:15:32;;;;;;;6.13;1.80;;;23.30;86.00;;;;;;6280279;22;20023;-88
2022/06/12 14:18:00;;;;;;;5.63;1.80;;;23.10;85.60;;;;;;6279162;22;20015;-87
2022/06/12 14:20:27;;;;;;;7.40;1.98;;;22.90;86.10;;;;;;6279954;22;20153;-88
2022/06/12 14:47:19;;;;;;;8.02;2.33;;;22.90;85.90;;;;;;6307014;22;20073;-86
2022/06/12 15:32:10;;;;;;;10.20;2.33;;;22.60;90.60;;;;;;6208792;23;20205;-88
2022/06/12 16:09:49;;;;;;;9.45;2.45;;;21.70;93.80;;;;;;6269225;22;20495;-87
2022/06/12 16:18:20;;;;;;;9.40;2.60;;;22.50;93.20;;;;;;6337355;22;20346;-87
2022/06/12 16:43:50;;;;;;;;;;;;;;;;;;;;;
2022/06/12 20:10:18;;;;;;;11.52;3.30;;;15.90;99.90;;;;;;6299273;22;20026;-87
2022/06/12 20:13:01;;;;;;;9.88;3.40;;;15.80;99.90;;;;;;6202515;22;20410;-87
2022/06/12 20:16:38;;;;;;;15.13;3.17;;;15.80;99.90;;;;;;6258555;22;20381;-88
2022/06/12 20:19:16;;;;;;;12.27;3.40;;;15.70;99.90;;;;;;6279355;22;20019;-86
2022/06/12 20:22:29;;;;;;;9.75;3.03;;;15.70;99.90;;;;;;6306796;22;20011;-88
2022/06/12 20:25:01;;;;;;;12.52;3.42;;;15.70;99.90;;;;;;6307164;22;20064;-87
2022/06/12 20:27:27;;;;;;;9.13;3.05;;;15.70;99.90;;;;;;6287612;22;20342;-87
2022/06/12 22:49:42;;;;;;;10.43;3.78;;;13.00;99.90;;;;;;6277029;22;20018;-86
2022/06/12 23:35:22;;;;;;;11.60;4.45;;;12.80;99.90;;;;;;6274455;22;20054;-86
2022/06/12 23:51:34;;;;;;;16.30;4.68;;;12.60;99.90;;;;;;6337290;22;20064;-86
